createdAt,value
2023-04-21T00:00:58.303Z,101368.84
2023-04-21T00:03:27.299Z,101360.84
2023-04-21T00:05:57.999Z,101370.38
2023-04-21T00:08:26.226Z,101358.13
2023-04-21T00:10:52.415Z,101356.41
2023-04-21T00:13:18.771Z,101362.13
2023-04-21T00:15:44.903Z,101361.13
2023-04-21T00:18:12.744Z,101354.97
2023-04-21T00:20:38.808Z,101362.78
2023-04-21T00:23:05.163Z,101356.78
2023-04-21T00:25:31.319Z,101355.66
2023-04-21T00:27:57.692Z,101366.22
2023-04-21T00:30:23.860Z,101357.66
2023-04-21T00:32:50.253Z,101358.19
2023-04-21T00:35:16.385Z,101359.28
2023-04-21T00:37:42.994Z,101357.69
2023-04-21T00:40:11.308Z,101353.69
2023-04-21T00:42:39.684Z,101350.25
2023-04-21T00:45:06.276Z,101352.38
2023-04-21T00:47:32.767Z,101350.38
2023-04-21T00:49:59.374Z,101346.94
2023-04-21T00:52:27.396Z,101353.94
2023-04-21T00:54:54.084Z,101349.25
2023-04-21T00:57:21.052Z,101351.84
2023-04-21T00:59:47.386Z,101350.97
2023-04-21T01:02:15.775Z,101347.13
2023-04-21T01:04:43.153Z,101347.81
2023-04-21T01:07:09.588Z,101356.22
2023-04-21T01:09:35.720Z,101353.03
2023-04-21T01:12:05.083Z,101350.88
2023-04-21T01:14:34.654Z,101345.03
2023-04-21T01:17:04.477Z,101348.16
2023-04-21T01:19:34.963Z,101349.00
2023-04-21T01:22:02.873Z,101344.97
2023-04-21T01:24:44.690Z,101352.97
2023-04-21T01:27:18.303Z,101351.78
2023-04-21T01:29:46.368Z,101358.31
2023-04-21T01:32:15.859Z,101355.97
2023-04-21T01:34:43.433Z,101360.53
2023-04-21T01:37:16.684Z,101350.56
2023-04-21T01:39:46.684Z,101350.81
2023-04-21T01:42:13.754Z,101356.50
2023-04-21T01:44:41.496Z,101355.91
2023-04-21T01:47:10.617Z,101361.25
2023-04-21T01:49:36.652Z,101355.97
2023-04-21T01:52:03.062Z,101353.38
2023-04-21T01:54:29.303Z,101344.66
2023-04-21T01:56:55.775Z,101349.75
2023-04-21T01:59:21.992Z,101348.28
2023-04-21T02:01:48.567Z,101344.84
2023-04-21T02:04:14.971Z,101352.25
2023-04-21T02:06:41.479Z,101349.91
2023-04-21T02:09:07.523Z,101354.72
2023-04-21T02:11:33.871Z,101344.78
2023-04-21T02:14:00.233Z,101342.91
2023-04-21T02:16:26.752Z,101346.09
2023-04-21T02:18:53.500Z,101347.47
2023-04-21T02:21:21.025Z,101345.03
2023-04-21T02:23:48.782Z,101350.09
2023-04-21T02:26:15.112Z,101345.41
2023-04-21T02:28:41.200Z,101354.38
2023-04-21T02:31:07.682Z,101350.81
2023-04-21T02:33:34.160Z,101357.22
2023-04-21T02:36:00.561Z,101354.03
2023-04-21T02:38:26.684Z,101356.88
2023-04-21T02:40:54.292Z,101360.44
2023-04-21T02:43:20.380Z,101355.75
2023-04-21T02:45:48.332Z,101356.84
2023-04-21T02:48:14.644Z,101358.94
2023-04-21T02:50:42.492Z,101355.97
2023-04-21T02:53:08.578Z,101349.22
2023-04-21T02:55:35.038Z,101358.34
2023-04-21T02:58:01.953Z,101356.28
2023-04-21T03:00:28.372Z,101358.25
2023-04-21T03:02:54.740Z,101356.78
2023-04-21T03:05:21.317Z,101353.94
2023-04-21T03:07:47.434Z,101354.03
2023-04-21T03:10:13.938Z,101355.41
2023-04-21T03:12:40.017Z,101351.97
2023-04-21T03:15:06.624Z,101344.00
2023-04-21T03:17:34.420Z,101350.25
2023-04-21T03:20:03.345Z,101348.19
2023-04-21T03:22:29.930Z,101341.25
2023-04-21T03:24:56.352Z,101343.72
2023-04-21T03:27:22.490Z,101344.84
2023-04-21T03:29:48.844Z,101349.63
2023-04-21T03:32:15.048Z,101350.25
2023-04-21T03:34:41.514Z,101341.41
2023-04-21T03:37:08.458Z,101344.84
2023-04-21T03:39:34.943Z,101343.38
2023-04-21T03:42:01.454Z,101347.06
2023-04-21T03:44:29.183Z,101349.75
2023-04-21T03:46:55.310Z,101357.88
2023-04-21T03:49:23.416Z,101348.16
2023-04-21T03:51:49.649Z,101349.50
2023-04-21T03:54:16.070Z,101353.94
2023-04-21T03:56:42.112Z,101349.88
2023-04-21T03:59:08.500Z,101359.72
2023-04-21T04:01:34.765Z,101357.00
2023-04-21T04:04:01.523Z,101348.91
2023-04-21T04:06:27.873Z,101358.13
2023-04-21T04:08:54.346Z,101353.22
2023-04-21T04:11:20.424Z,101358.84
2023-04-21T04:13:46.808Z,101358.34
2023-04-21T04:16:12.930Z,101359.34
2023-04-21T04:18:39.299Z,101363.88
2023-04-21T04:21:06.784Z,101370.16
2023-04-21T04:23:33.892Z,101366.22
2023-04-21T04:26:00.956Z,101368.44
2023-04-21T04:28:28.089Z,101368.91
2023-04-21T04:30:54.638Z,101376.78
2023-04-21T04:33:21.168Z,101371.63
2023-04-21T04:35:47.393Z,101378.75
2023-04-21T04:38:16.718Z,101370.88
2023-04-21T04:40:43.057Z,101375.16
2023-04-21T04:43:12.065Z,101373.19
2023-04-21T04:45:38.362Z,101375.03
2023-04-21T04:48:05.710Z,101374.38
2023-04-21T04:50:32.047Z,101377.66
2023-04-21T04:52:58.729Z,101376.66
2023-04-21T04:55:25.287Z,101365.72
2023-04-21T04:57:51.987Z,101373.69
2023-04-21T05:00:18.593Z,101372.94
2023-04-21T05:02:45.234Z,101376.59
2023-04-21T05:05:11.851Z,101375.59
2023-04-21T05:07:38.487Z,101371.78
2023-04-21T05:10:05.461Z,101376.28
2023-04-21T05:12:32.127Z,101375.88
2023-04-21T05:14:58.557Z,101376.69
2023-04-21T05:17:25.635Z,101382.56
2023-04-21T05:19:51.967Z,101378.00
2023-04-21T05:22:18.357Z,101377.59
2023-04-21T05:24:44.933Z,101379.66
2023-04-21T05:27:11.428Z,101385.66
2023-04-21T05:29:37.812Z,101379.00
2023-04-21T05:32:04.973Z,101383.63
2023-04-21T05:34:31.160Z,101384.34
2023-04-21T05:36:57.520Z,101377.31
2023-04-21T05:39:23.646Z,101379.78
2023-04-21T05:41:50.141Z,101372.66
2023-04-21T05:44:17.253Z,101381.84
2023-04-21T05:46:44.236Z,101385.28
2023-04-21T05:49:10.681Z,101376.72
2023-04-21T05:51:37.125Z,101375.34
2023-04-21T05:54:03.697Z,101372.78
2023-04-21T05:56:30.074Z,101372.13
2023-04-21T05:58:56.214Z,101367.97
2023-04-21T06:01:22.568Z,101375.41
2023-04-21T06:03:49.449Z,101370.56
2023-04-21T06:06:17.006Z,101361.06
2023-04-21T06:08:43.243Z,101366.16
2023-04-21T06:11:09.776Z,101364.88
2023-04-21T06:13:38.087Z,101371.41
2023-04-21T06:16:05.270Z,101360.66
2023-04-21T06:18:31.469Z,101361.88
2023-04-21T06:20:57.874Z,101363.56
2023-04-21T06:23:23.991Z,101365.34
2023-04-21T06:26:00.904Z,101361.03
2023-04-21T06:28:27.055Z,101369.19
2023-04-21T06:30:53.509Z,101368.75
2023-04-21T06:33:19.807Z,101365.06
2023-04-21T06:35:46.536Z,101363.53
2023-04-21T06:38:12.656Z,101362.38
2023-04-21T06:40:39.339Z,101361.22
2023-04-21T06:43:05.925Z,101358.97
2023-04-21T06:45:32.284Z,101362.75
2023-04-21T06:47:58.792Z,101352.13
2023-04-21T06:50:25.312Z,101357.03
2023-04-21T06:52:51.458Z,101353.94
2023-04-21T06:55:18.002Z,101363.25
2023-04-21T06:57:44.086Z,101363.38
2023-04-21T07:00:11.458Z,101358.09
2023-04-21T07:02:37.781Z,101356.41
2023-04-21T07:05:04.908Z,101356.41
2023-04-21T07:07:31.183Z,101352.81
2023-04-21T07:09:57.884Z,101351.69
2023-04-21T07:12:24.250Z,101351.28
2023-04-21T07:14:50.878Z,101356.88
2023-04-21T07:17:17.399Z,101355.25
2023-04-21T07:19:44.276Z,101358.66
2023-04-21T07:22:10.647Z,101352.00
2023-04-21T07:24:37.166Z,101360.28
2023-04-21T07:27:03.457Z,101362.59
2023-04-21T07:29:29.994Z,101361.84
2023-04-21T07:31:57.745Z,101364.97
2023-04-21T07:34:24.897Z,101353.09
2023-04-21T07:36:51.926Z,101361.34
2023-04-21T07:39:18.524Z,101355.94
2023-04-21T07:41:44.882Z,101361.16
2023-04-21T07:44:11.608Z,101355.47
2023-04-21T07:46:38.018Z,101348.25
2023-04-21T07:49:04.722Z,101356.91
2023-04-21T07:51:31.244Z,101350.94
2023-04-21T07:53:57.626Z,101353.78
2023-04-21T07:56:23.765Z,101350.28
2023-04-21T07:58:50.182Z,101354.56
2023-04-21T08:01:16.419Z,101344.72
2023-04-21T08:03:43.050Z,101345.22
2023-04-21T08:06:09.483Z,101353.88
2023-04-21T08:08:38.712Z,101344.41
2023-04-21T08:11:04.789Z,101341.63
2023-04-21T08:13:31.437Z,101350.00
2023-04-21T08:15:57.989Z,101348.63
2023-04-21T08:18:24.475Z,101332.72
2023-04-21T08:20:51.693Z,101346.69
2023-04-21T08:23:19.043Z,101340.78
2023-04-21T08:25:45.315Z,101348.59
2023-04-21T08:28:11.839Z,101341.50
2023-04-21T08:30:37.948Z,101340.38
2023-04-21T08:33:04.495Z,101345.81
2023-04-21T08:35:31.016Z,101339.78
2023-04-21T08:37:57.382Z,101339.88
2023-04-21T08:40:32.202Z,101332.97
2023-04-21T08:42:59.504Z,101327.31
2023-04-21T08:45:27.200Z,101333.88
2023-04-21T08:47:55.401Z,101330.50
2023-04-21T08:50:26.755Z,101333.25
2023-04-21T08:52:55.808Z,101329.81
2023-04-21T08:55:26.419Z,101333.25
2023-04-21T08:57:52.802Z,101337.34
2023-04-21T09:00:19.199Z,101326.91
2023-04-21T09:03:00.776Z,101331.75
2023-04-21T09:05:32.756Z,101330.47
2023-04-21T09:08:17.703Z,101324.00
2023-04-21T09:10:45.739Z,101328.22
2023-04-21T09:13:12.218Z,101319.69
2023-04-21T09:15:43.262Z,101326.19
2023-04-21T09:18:13.890Z,101328.06
2023-04-21T09:20:41.229Z,101316.88
2023-04-21T09:23:07.642Z,101329.44
2023-04-21T09:25:33.900Z,101316.09
2023-04-21T09:28:00.379Z,101314.31
2023-04-21T09:30:26.571Z,101314.22
2023-04-21T09:32:57.331Z,101307.03
2023-04-21T09:35:28.621Z,101309.34
2023-04-21T09:37:55.145Z,101307.44
2023-04-21T09:40:21.235Z,101311.16
2023-04-21T09:42:48.773Z,101303.81
2023-04-21T09:47:52.772Z,101300.84
2023-04-21T09:50:41.874Z,101306.28
2023-04-21T09:53:13.396Z,101303.44
2023-04-21T09:55:41.492Z,101307.38
2023-04-21T09:58:12.554Z,101294.06
2023-04-21T10:00:40.268Z,101311.06
2023-04-21T10:03:10.778Z,101298.59
2023-04-21T10:05:40.250Z,101301.22
2023-04-21T10:08:10.657Z,101296.63
2023-04-21T10:10:38.016Z,101292.44
2023-04-21T10:13:04.373Z,101292.97
2023-04-21T10:15:37.868Z,101290.31
2023-04-21T10:18:22.240Z,101284.38
2023-04-21T10:21:03.501Z,101277.19
2023-04-21T10:23:42.173Z,101276.91
2023-04-21T10:26:10.818Z,101276.84
2023-04-21T10:28:51.336Z,101283.91
2023-04-21T10:31:19.406Z,101278.66
2023-04-21T10:34:07.760Z,101271.69
2023-04-21T10:37:06.722Z,101270.41
2023-04-21T10:39:37.738Z,101281.97
2023-04-21T10:42:13.104Z,101274.59
2023-04-21T10:44:52.297Z,101267.91
2023-04-21T10:47:32.823Z,101262.03
2023-04-21T10:50:09.512Z,101266.03
2023-04-21T10:52:36.053Z,101261.38
2023-04-21T10:55:09.870Z,101270.59
2023-04-21T10:57:37.280Z,101260.41
2023-04-21T11:00:08.353Z,101272.97
2023-04-21T11:02:38.117Z,101261.63
2023-04-21T11:05:08.183Z,101263.00
2023-04-21T11:07:34.795Z,101255.34
2023-04-21T11:10:02.361Z,101254.81
2023-04-21T11:12:31.609Z,101250.25
2023-04-21T11:14:57.840Z,101247.56
2023-04-21T11:17:25.032Z,101245.19
2023-04-21T11:19:55.298Z,101240.94
2023-04-21T11:22:23.960Z,101238.66
2023-04-21T11:24:53.885Z,101240.22
2023-04-21T11:27:27.035Z,101233.75
2023-04-21T11:29:53.156Z,101230.22
2023-04-21T11:32:19.975Z,101220.84
2023-04-21T11:34:47.270Z,101224.44
2023-04-21T11:37:16.158Z,101212.63
2023-04-21T11:39:43.643Z,101224.44
2023-04-21T11:42:11.094Z,101211.44
2023-04-21T11:44:41.980Z,101204.47
2023-04-21T11:47:24.509Z,101213.63
2023-04-21T11:49:56.900Z,101214.72
2023-04-21T11:52:27.926Z,101209.97
2023-04-21T11:54:57.063Z,101208.44
2023-04-21T11:57:24.717Z,101202.81
2023-04-21T11:59:51.624Z,101205.84
2023-04-21T12:02:23.511Z,101204.03
2023-04-21T12:05:06.831Z,101220.66
2023-04-21T12:07:36.053Z,101208.72
2023-04-21T12:10:09.014Z,101197.34
2023-04-21T12:12:40.360Z,101207.91
2023-04-21T12:15:08.265Z,101197.44
2023-04-21T12:17:39.339Z,101190.22
2023-04-21T12:20:07.088Z,101188.59
2023-04-21T12:22:33.517Z,101187.16
2023-04-21T12:24:59.659Z,101196.19
2023-04-21T12:27:26.824Z,101192.03
2023-04-21T12:29:53.350Z,101177.00
2023-04-21T12:32:20.856Z,101177.38
2023-04-21T12:34:47.135Z,101171.19
2023-04-21T12:37:13.805Z,101178.88
2023-04-21T12:39:40.440Z,101169.13
2023-04-21T12:42:07.156Z,101164.34
2023-04-21T12:44:33.539Z,101156.53
2023-04-21T12:47:02.321Z,101161.09
2023-04-21T12:49:29.143Z,101161.53
2023-04-21T12:51:56.072Z,101151.00
2023-04-21T12:54:22.238Z,101143.97
2023-04-21T12:56:48.837Z,101153.25
2023-04-21T12:59:15.142Z,101148.78
2023-04-21T13:01:43.265Z,101146.38
2023-04-21T13:04:10.163Z,101142.47
2023-04-21T13:06:38.233Z,101145.94
2023-04-21T13:09:05.611Z,101150.69
2023-04-21T13:11:32.230Z,101142.88
2023-04-21T13:13:58.539Z,101135.22
2023-04-21T13:16:26.239Z,101139.53
2023-04-21T13:18:53.761Z,101132.38
2023-04-21T13:21:20.523Z,101127.06
2023-04-21T13:23:46.937Z,101134.28
2023-04-21T13:26:14.248Z,101125.97
2023-04-21T13:28:40.825Z,101132.78
2023-04-21T13:31:07.562Z,101121.78
2023-04-21T13:33:34.816Z,101129.81
2023-04-21T13:36:02.789Z,101114.09
2023-04-21T13:38:29.959Z,101124.09
2023-04-21T13:40:56.786Z,101102.31
2023-04-21T13:43:23.095Z,101118.88
2023-04-21T13:45:51.434Z,101112.88
2023-04-21T13:48:21.374Z,101113.31
2023-04-21T13:50:48.310Z,101107.63
2023-04-21T13:53:15.485Z,101107.38
2023-04-21T13:55:43.216Z,101102.72
2023-04-21T13:58:10.410Z,101093.00
2023-04-21T14:00:37.970Z,101090.03
2023-04-21T14:03:05.205Z,101086.44
2023-04-21T14:05:32.495Z,101086.63
2023-04-21T14:07:59.747Z,101087.44
2023-04-21T14:10:26.942Z,101087.00
2023-04-21T14:12:53.776Z,101076.22
2023-04-21T14:15:20.524Z,101068.13
2023-04-21T14:17:46.987Z,101068.13
2023-04-21T14:20:13.479Z,101070.47
2023-04-21T14:22:39.640Z,101068.41
2023-04-21T14:25:06.241Z,101067.56
2023-04-21T14:27:32.445Z,101062.25
2023-04-21T14:29:59.526Z,101053.72
2023-04-21T14:32:25.985Z,101057.09
2023-04-21T14:34:52.990Z,101057.34
2023-04-21T14:37:20.799Z,101054.88
2023-04-21T14:39:47.327Z,101050.38
2023-04-21T14:42:13.433Z,101048.47
2023-04-21T14:44:39.831Z,101035.75
2023-04-21T14:47:09.692Z,101042.81
2023-04-21T14:49:38.169Z,101037.25
2023-04-21T14:52:04.588Z,101040.66
2023-04-21T14:54:31.355Z,101025.34
2023-04-21T14:57:14.814Z,101035.53
2023-04-21T14:59:46.008Z,101036.19
2023-04-21T15:02:12.384Z,101036.41
2023-04-21T15:04:39.212Z,101027.06
2023-04-21T15:07:05.422Z,101033.75
2023-04-21T15:09:32.304Z,101031.72
2023-04-21T15:11:58.715Z,101029.13
2023-04-21T15:14:25.637Z,101028.22
2023-04-21T15:16:52.215Z,101018.69
2023-04-21T15:19:18.671Z,101025.50
2023-04-21T15:21:45.480Z,101016.44
2023-04-21T15:24:12.282Z,101012.56
2023-04-21T15:26:40.218Z,101023.56
2023-04-21T15:29:07.504Z,101016.38
2023-04-21T15:31:35.238Z,101008.69
2023-04-21T15:34:02.271Z,101007.03
2023-04-21T15:36:28.751Z,101007.88
2023-04-21T15:38:55.663Z,101001.34
2023-04-21T15:41:22.087Z,101003.00
2023-04-21T15:43:48.823Z,101009.09
2023-04-21T15:46:15.169Z,100996.22
2023-04-21T15:48:41.996Z,100993.16
2023-04-21T15:51:09.071Z,100993.63
2023-04-21T15:53:36.702Z,100998.69
2023-04-21T15:56:06.652Z,100996.16
2023-04-21T15:58:33.066Z,100991.47
2023-04-21T16:00:59.114Z,100990.63
2023-04-21T16:03:25.707Z,100990.22
2023-04-21T16:05:52.778Z,100984.88
2023-04-21T16:08:20.084Z,100986.53
2023-04-21T16:10:46.362Z,100978.22
2023-04-21T16:13:13.056Z,100986.22
2023-04-21T16:15:40.261Z,100977.41
2023-04-21T16:18:07.882Z,100982.81
2023-04-21T16:20:35.571Z,100984.72
2023-04-21T16:23:04.115Z,100977.34
2023-04-21T16:25:31.788Z,100972.13
2023-04-21T16:27:58.578Z,100968.78
2023-04-21T16:30:24.780Z,100969.19
2023-04-21T16:32:51.305Z,100970.94
2023-04-21T16:35:18.348Z,100957.34
2023-04-21T16:37:45.286Z,100957.81
2023-04-21T16:40:11.781Z,100970.09
2023-04-21T16:42:38.219Z,100966.03
2023-04-21T16:45:05.135Z,100966.19
2023-04-21T16:47:36.584Z,100968.25
2023-04-21T16:50:05.808Z,100961.72
2023-04-21T16:52:32.193Z,100962.31
2023-04-21T16:54:58.288Z,100968.03
2023-04-21T16:57:25.035Z,100957.16
2023-04-21T16:59:52.262Z,100961.56
2023-04-21T17:02:19.150Z,100959.41
2023-04-21T17:04:46.380Z,100964.03
2023-04-21T17:07:13.057Z,100957.38
2023-04-21T17:09:39.227Z,100961.28
2023-04-21T17:12:05.749Z,100954.09
2023-04-21T17:14:32.117Z,100958.41
2023-04-21T17:16:58.791Z,100953.69
2023-04-21T17:19:24.966Z,100958.91
2023-04-21T17:21:51.339Z,100954.47
2023-04-21T17:24:17.558Z,100956.06
2023-04-21T17:26:44.164Z,100961.09
2023-04-21T17:29:10.457Z,100955.44
2023-04-21T17:31:37.277Z,100952.72
2023-04-21T17:34:03.423Z,100950.72
2023-04-21T17:36:30.028Z,100951.03
2023-04-21T17:38:57.628Z,100952.63
2023-04-21T17:41:25.617Z,100954.06
2023-04-21T17:43:54.162Z,100955.47
2023-04-21T17:46:24.178Z,100959.16
2023-04-21T17:48:51.537Z,100936.97
2023-04-21T17:51:18.610Z,100951.31
2023-04-21T17:53:45.924Z,100952.44
2023-04-21T17:56:13.661Z,100962.06
2023-04-21T17:58:43.084Z,100951.03
2023-04-21T18:01:09.705Z,100958.75
2023-04-21T18:03:36.449Z,100962.59
2023-04-21T18:06:04.112Z,100967.41
2023-04-21T18:08:30.435Z,100962.19
2023-04-21T18:10:57.041Z,100959.34
2023-04-21T18:13:23.273Z,100965.19
2023-04-21T18:15:50.070Z,100967.34
2023-04-21T18:18:16.363Z,100961.31
2023-04-21T18:20:42.836Z,100956.63
2023-04-21T18:23:09.220Z,100970.38
2023-04-21T18:25:42.418Z,100971.13
2023-04-21T18:28:13.610Z,100970.50
2023-04-21T18:30:40.251Z,100961.31
2023-04-21T18:33:06.858Z,100964.78
2023-04-21T18:35:33.772Z,100964.81
2023-04-21T18:38:00.541Z,100958.19
2023-04-21T18:40:27.283Z,100959.06
2023-04-21T18:42:53.702Z,100962.34
2023-04-21T18:45:20.275Z,100957.41
2023-04-21T18:47:47.073Z,100964.41
2023-04-21T18:50:13.859Z,100952.69
2023-04-21T18:52:40.341Z,100959.91
2023-04-21T18:55:07.421Z,100951.75
2023-04-21T18:57:33.795Z,100947.50
2023-04-21T19:00:00.608Z,100956.72
2023-04-21T19:02:28.617Z,100958.28
2023-04-21T19:04:55.696Z,100952.28
2023-04-21T19:07:22.104Z,100947.84
2023-04-21T19:09:49.040Z,100950.03
2023-04-21T19:12:15.832Z,100956.84
2023-04-21T19:14:47.138Z,100948.28
2023-04-21T19:17:15.008Z,100952.00
2023-04-21T19:19:42.156Z,100950.28
2023-04-21T19:22:08.723Z,100950.94
2023-04-21T19:24:35.444Z,100951.75
2023-04-21T19:27:02.815Z,100954.47
2023-04-21T19:29:29.721Z,100946.81
2023-04-21T19:31:56.228Z,100944.78
2023-04-21T19:34:23.131Z,100942.91
2023-04-21T19:36:52.097Z,100949.03
2023-04-21T19:39:19.204Z,100942.22
2023-04-21T19:41:45.494Z,100939.81
2023-04-21T19:44:12.359Z,100939.34
2023-04-21T19:46:41.801Z,100946.97
2023-04-21T19:49:12.212Z,100946.88
2023-04-21T19:51:39.579Z,100942.75
2023-04-21T19:54:11.532Z,100941.97
2023-04-21T19:56:39.530Z,100936.63
2023-04-21T19:59:06.509Z,100945.28
2023-04-21T20:01:33.469Z,100945.91
2023-04-21T20:04:00.361Z,100942.81
2023-04-21T20:06:27.855Z,100946.56
2023-04-21T20:08:55.013Z,100944.63
2023-04-21T20:11:21.343Z,100945.63
2023-04-21T20:13:48.124Z,100939.06
2023-04-21T20:16:16.835Z,100926.56
2023-04-21T20:18:43.496Z,100940.44
2023-04-21T20:21:10.177Z,100937.59
2023-04-21T20:23:36.719Z,100939.19
2023-04-21T20:26:02.901Z,100942.38
2023-04-21T20:28:29.820Z,100948.59
2023-04-21T20:30:56.320Z,100940.81
2023-04-21T20:33:23.039Z,100938.75
2023-04-21T20:35:49.400Z,100938.03
2023-04-21T20:38:16.122Z,100946.34
2023-04-21T20:40:42.612Z,100944.09
2023-04-21T20:43:09.555Z,100943.53
2023-04-21T20:45:35.864Z,100945.00
2023-04-21T20:48:03.598Z,100937.66
2023-04-21T20:50:29.840Z,100942.22
2023-04-21T20:52:57.429Z,100938.34
2023-04-21T20:55:23.670Z,100936.72
2023-04-21T20:57:50.342Z,100940.19
2023-04-21T21:00:16.669Z,100935.69
2023-04-21T21:02:43.607Z,100940.56
2023-04-21T21:05:10.120Z,100944.56
2023-04-21T21:07:36.668Z,100939.97
2023-04-21T21:10:03.867Z,100948.50
2023-04-21T21:12:30.215Z,100953.47
2023-04-21T21:14:56.856Z,100956.25
2023-04-21T21:17:24.469Z,100962.47
2023-04-21T21:19:50.725Z,100960.44
2023-04-21T21:22:17.161Z,100960.28
2023-04-21T21:24:43.442Z,100962.84
2023-04-21T21:27:10.158Z,100963.16
2023-04-21T21:29:36.659Z,100962.06
2023-04-21T21:32:03.518Z,100957.88
2023-04-21T21:34:29.697Z,100955.41
2023-04-21T21:36:56.036Z,100957.34
2023-04-21T21:39:22.217Z,100956.34
2023-04-21T21:41:48.682Z,100958.59
2023-04-21T21:44:14.825Z,100956.75
2023-04-21T21:46:41.726Z,100951.78
2023-04-21T21:49:08.179Z,100963.47
2023-04-21T21:51:34.706Z,100955.34
2023-04-21T21:54:01.007Z,100958.06
2023-04-21T21:56:27.820Z,100959.59
2023-04-21T21:58:53.999Z,100959.44
2023-04-21T22:01:20.457Z,100963.56
2023-04-21T22:03:46.854Z,100956.03
2023-04-21T22:06:16.317Z,100965.75
2023-04-21T22:08:43.509Z,100969.22
2023-04-21T22:11:10.220Z,100958.66
2023-04-21T22:13:36.693Z,100959.44
2023-04-21T22:16:03.435Z,100952.38
2023-04-21T22:18:30.105Z,100956.78
2023-04-21T22:20:58.288Z,100956.41
2023-04-21T22:23:25.269Z,100962.84
2023-04-21T22:25:52.094Z,100962.91
2023-04-21T22:28:18.405Z,100965.81
2023-04-21T22:30:45.253Z,100969.47
2023-04-21T22:33:11.966Z,100972.56
2023-04-21T22:35:39.265Z,100964.41
2023-04-21T22:38:05.703Z,100964.97
2023-04-21T22:40:32.442Z,100963.66
2023-04-21T22:42:58.552Z,100968.44
2023-04-21T22:45:25.942Z,100959.50
2023-04-21T22:47:52.525Z,100961.97
2023-04-21T22:50:19.166Z,100959.72
2023-04-21T22:52:45.716Z,100956.63
2023-04-21T22:55:12.246Z,100969.94
2023-04-21T22:57:38.574Z,100969.25
2023-04-21T23:00:07.289Z,100975.69
2023-04-21T23:02:33.593Z,100974.25
2023-04-21T23:05:00.274Z,100979.69
2023-04-21T23:07:26.454Z,100969.41
2023-04-21T23:09:52.791Z,100961.91
2023-04-21T23:12:19.095Z,100963.03
2023-04-21T23:14:45.732Z,100966.59
2023-04-21T23:17:11.815Z,100962.91
2023-04-21T23:19:38.359Z,100956.09
2023-04-21T23:22:04.605Z,100965.19
2023-04-21T23:24:30.977Z,100962.22
2023-04-21T23:26:57.104Z,100957.84
2023-04-21T23:29:23.552Z,100965.25
2023-04-21T23:31:49.763Z,100954.72
2023-04-21T23:34:16.207Z,100951.28
2023-04-21T23:36:42.274Z,100953.00
2023-04-21T23:39:09.191Z,100951.59
2023-04-21T23:41:35.328Z,100954.44
2023-04-21T23:44:01.745Z,100955.69
2023-04-21T23:46:27.875Z,100952.13
2023-04-21T23:48:54.357Z,100947.31
2023-04-21T23:51:21.438Z,100953.75
2023-04-21T23:53:48.086Z,100948.94
2023-04-21T23:56:14.311Z,100946.75
2023-04-21T23:58:40.743Z,100940.47
